sensor_id;sensor_type;location;lat;lon;timestamp;P1;durP1;ratioP1;P2;durP2;ratioP2
69369;SDS011;56530;42.640;23.372;2023-06-22T00:00:49;8.13;;;7.47;;
69369;SDS011;56530;42.640;23.372;2023-06-22T00:03:15;11.90;;;7.80;;
69369;SDS011;56530;42.640;23.372;2023-06-22T00:05:42;7.88;;;7.18;;
69369;SDS011;56530;42.640;23.372;2023-06-22T00:08:08;8.50;;;7.53;;
69369;SDS011;56530;42.640;23.372;2023-06-22T00:10:33;7.57;;;6.97;;
69369;SDS011;56530;42.640;23.372;2023-06-22T00:12:58;7.50;;;6.87;;
69369;SDS011;56530;42.640;23.372;2023-06-22T00:15:24;6.43;;;5.93;;
69369;SDS011;56530;42.640;23.372;2023-06-22T00:17:49;7.83;;;7.00;;
69369;SDS011;56530;42.640;23.372;2023-06-22T00:20:15;7.17;;;6.30;;
69369;SDS011;56530;42.640;23.372;2023-06-22T00:22:43;7.57;;;6.75;;
69369;SDS011;56530;42.640;23.372;2023-06-22T00:25:09;9.00;;;7.28;;
69369;SDS011;56530;42.640;23.372;2023-06-22T00:27:35;8.45;;;7.65;;
69369;SDS011;56530;42.640;23.372;2023-06-22T00:30:01;10.00;;;8.15;;
69369;SDS011;56530;42.640;23.372;2023-06-22T00:32:26;9.97;;;7.77;;
69369;SDS011;56530;42.640;23.372;2023-06-22T00:34:52;8.70;;;7.80;;
69369;SDS011;56530;42.640;23.372;2023-06-22T00:37:17;10.60;;;8.13;;
69369;SDS011;56530;42.640;23.372;2023-06-22T00:39:43;8.00;;;7.20;;
69369;SDS011;56530;42.640;23.372;2023-06-22T00:42:08;8.60;;;7.83;;
69369;SDS011;56530;42.640;23.372;2023-06-22T00:44:34;9.20;;;8.30;;
69369;SDS011;56530;42.640;23.372;2023-06-22T00:47:00;10.37;;;8.30;;
69369;SDS011;56530;42.640;23.372;2023-06-22T00:49:26;8.63;;;7.73;;
69369;SDS011;56530;42.640;23.372;2023-06-22T00:51:51;8.07;;;7.27;;
69369;SDS011;56530;42.640;23.372;2023-06-22T00:54:17;8.70;;;7.38;;
69369;SDS011;56530;42.640;23.372;2023-06-22T00:56:55;8.38;;;6.85;;
69369;SDS011;56530;42.640;23.372;2023-06-22T00:59:23;8.65;;;7.22;;
69369;SDS011;56530;42.640;23.372;2023-06-22T01:01:48;9.23;;;7.63;;
69369;SDS011;56530;42.640;23.372;2023-06-22T01:04:14;8.47;;;7.67;;
69369;SDS011;56530;42.640;23.372;2023-06-22T01:06:58;8.88;;;7.97;;
69369;SDS011;56530;42.640;23.372;2023-06-22T01:09:31;7.68;;;7.07;;
69369;SDS011;56530;42.640;23.372;2023-06-22T01:12:00;8.77;;;7.95;;
69369;SDS011;56530;42.640;23.372;2023-06-22T01:14:28;8.50;;;7.72;;
69369;SDS011;56530;42.640;23.372;2023-06-22T01:16:59;8.82;;;7.93;;
69369;SDS011;56530;42.640;23.372;2023-06-22T01:19:44;9.03;;;8.17;;
69369;SDS011;56530;42.640;23.372;2023-06-22T01:22:15;9.07;;;8.27;;
69369;SDS011;56530;42.640;23.372;2023-06-22T01:30:07;9.30;;;7.88;;
69369;SDS011;56530;42.640;23.372;2023-06-22T01:32:35;8.82;;;8.02;;
69369;SDS011;56530;42.640;23.372;2023-06-22T01:35:03;9.57;;;8.23;;
69369;SDS011;56530;42.640;23.372;2023-06-22T01:37:30;9.13;;;8.00;;
69369;SDS011;56530;42.640;23.372;2023-06-22T01:39:57;9.43;;;8.52;;
69369;SDS011;56530;42.640;23.372;2023-06-22T01:42:26;9.15;;;7.97;;
69369;SDS011;56530;42.640;23.372;2023-06-22T01:44:52;8.70;;;8.00;;
69369;SDS011;56530;42.640;23.372;2023-06-22T01:47:20;9.13;;;8.32;;
69369;SDS011;56530;42.640;23.372;2023-06-22T01:49:46;9.63;;;8.73;;
69369;SDS011;56530;42.640;23.372;2023-06-22T01:52:11;9.23;;;8.38;;
69369;SDS011;56530;42.640;23.372;2023-06-22T01:54:37;9.40;;;8.50;;
69369;SDS011;56530;42.640;23.372;2023-06-22T01:57:03;9.40;;;8.60;;
69369;SDS011;56530;42.640;23.372;2023-06-22T01:59:31;8.95;;;8.15;;
69369;SDS011;56530;42.640;23.372;2023-06-22T02:02:52;9.90;;;7.97;;
69369;SDS011;56530;42.640;23.372;2023-06-22T02:05:15;8.50;;;7.63;;
69369;SDS011;56530;42.640;23.372;2023-06-22T02:07:44;8.48;;;7.72;;
69369;SDS011;56530;42.640;23.372;2023-06-22T02:10:12;8.52;;;7.45;;
69369;SDS011;56530;42.640;23.372;2023-06-22T02:12:39;8.43;;;7.53;;
69369;SDS011;56530;42.640;23.372;2023-06-22T02:15:06;8.43;;;7.63;;
69369;SDS011;56530;42.640;23.372;2023-06-22T02:17:32;8.38;;;7.65;;
69369;SDS011;56530;42.640;23.372;2023-06-22T02:19:58;9.07;;;8.18;;
69369;SDS011;56530;42.640;23.372;2023-06-22T02:22:24;9.30;;;7.75;;
69369;SDS011;56530;42.640;23.372;2023-06-22T02:24:49;9.07;;;7.80;;
69369;SDS011;56530;42.640;23.372;2023-06-22T02:27:15;10.10;;;7.83;;
69369;SDS011;56530;42.640;23.372;2023-06-22T02:29:40;10.83;;;8.80;;
69369;SDS011;56530;42.640;23.372;2023-06-22T02:32:06;9.40;;;8.40;;
69369;SDS011;56530;42.640;23.372;2023-06-22T02:34:31;9.40;;;8.60;;
69369;SDS011;56530;42.640;23.372;2023-06-22T02:36:58;11.68;;;9.70;;
69369;SDS011;56530;42.640;23.372;2023-06-22T02:39:26;10.45;;;8.57;;
69369;SDS011;56530;42.640;23.372;2023-06-22T02:41:52;9.60;;;8.40;;
69369;SDS011;56530;42.640;23.372;2023-06-22T02:44:18;8.93;;;8.13;;
69369;SDS011;56530;42.640;23.372;2023-06-22T02:46:44;9.57;;;8.48;;
69369;SDS011;56530;42.640;23.372;2023-06-22T02:49:10;8.75;;;7.95;;
69369;SDS011;56530;42.640;23.372;2023-06-22T02:51:38;11.82;;;8.80;;
69369;SDS011;56530;42.640;23.372;2023-06-22T02:54:04;9.77;;;8.88;;
69369;SDS011;56530;42.640;23.372;2023-06-22T02:56:30;13.57;;;9.05;;
69369;SDS011;56530;42.640;23.372;2023-06-22T02:58:56;9.40;;;8.38;;
69369;SDS011;56530;42.640;23.372;2023-06-22T03:01:25;8.80;;;8.00;;
69369;SDS011;56530;42.640;23.372;2023-06-22T03:03:53;9.65;;;8.05;;
69369;SDS011;56530;42.640;23.372;2023-06-22T03:06:19;9.98;;;8.48;;
69369;SDS011;56530;42.640;23.372;2023-06-22T03:08:51;9.30;;;8.50;;
69369;SDS011;56530;42.640;23.372;2023-06-22T03:11:17;9.85;;;8.70;;
69369;SDS011;56530;42.640;23.372;2023-06-22T03:13:42;9.87;;;8.97;;
69369;SDS011;56530;42.640;23.372;2023-06-22T03:16:08;10.30;;;8.13;;
69369;SDS011;56530;42.640;23.372;2023-06-22T03:18:33;10.50;;;9.13;;
69369;SDS011;56530;42.640;23.372;2023-06-22T03:20:59;10.53;;;8.47;;
69369;SDS011;56530;42.640;23.372;2023-06-22T03:23:25;10.63;;;8.40;;
69369;SDS011;56530;42.640;23.372;2023-06-22T03:25:50;12.88;;;8.77;;
69369;SDS011;56530;42.640;23.372;2023-06-22T03:28:15;11.67;;;7.93;;
69369;SDS011;56530;42.640;23.372;2023-06-22T03:30:41;11.27;;;7.67;;
69369;SDS011;56530;42.640;23.372;2023-06-22T03:33:06;9.20;;;8.30;;
69369;SDS011;56530;42.640;23.372;2023-06-22T03:35:32;13.50;;;8.87;;
69369;SDS011;56530;42.640;23.372;2023-06-22T03:37:57;9.80;;;8.80;;
69369;SDS011;56530;42.640;23.372;2023-06-22T03:40:22;17.60;;;9.23;;
69369;SDS011;56530;42.640;23.372;2023-06-22T03:42:48;15.40;;;8.60;;
69369;SDS011;56530;42.640;23.372;2023-06-22T03:45:13;12.40;;;7.50;;
69369;SDS011;56530;42.640;23.372;2023-06-22T03:47:39;12.43;;;7.70;;
69369;SDS011;56530;42.640;23.372;2023-06-22T03:50:04;8.63;;;7.80;;
69369;SDS011;56530;42.640;23.372;2023-06-22T03:52:31;9.73;;;8.10;;
69369;SDS011;56530;42.640;23.372;2023-06-22T03:54:56;8.48;;;7.68;;
69369;SDS011;56530;42.640;23.372;2023-06-22T03:57:21;8.30;;;7.50;;
69369;SDS011;56530;42.640;23.372;2023-06-22T03:59:47;8.47;;;7.70;;
69369;SDS011;56530;42.640;23.372;2023-06-22T04:02:12;9.13;;;8.23;;
69369;SDS011;56530;42.640;23.372;2023-06-22T04:04:38;9.43;;;7.95;;
69369;SDS011;56530;42.640;23.372;2023-06-22T04:07:04;14.80;;;8.13;;
69369;SDS011;56530;42.640;23.372;2023-06-22T04:09:30;13.47;;;11.37;;
69369;SDS011;56530;42.640;23.372;2023-06-22T04:11:55;13.67;;;12.40;;
69369;SDS011;56530;42.640;23.372;2023-06-22T04:14:20;12.48;;;9.15;;
69369;SDS011;56530;42.640;23.372;2023-06-22T04:16:46;11.60;;;10.07;;
69369;SDS011;56530;42.640;23.372;2023-06-22T04:19:11;13.10;;;9.27;;
69369;SDS011;56530;42.640;23.372;2023-06-22T04:21:41;10.80;;;9.60;;
69369;SDS011;56530;42.640;23.372;2023-06-22T04:24:07;11.40;;;10.20;;
69369;SDS011;56530;42.640;23.372;2023-06-22T04:26:33;11.13;;;10.23;;
69369;SDS011;56530;42.640;23.372;2023-06-22T04:29:05;13.13;;;10.93;;
69369;SDS011;56530;42.640;23.372;2023-06-22T04:31:39;13.27;;;10.90;;
69369;SDS011;56530;42.640;23.372;2023-06-22T04:34:06;15.70;;;10.67;;
69369;SDS011;56530;42.640;23.372;2023-06-22T04:36:36;13.47;;;11.13;;
69369;SDS011;56530;42.640;23.372;2023-06-22T04:39:12;17.55;;;11.25;;
69369;SDS011;56530;42.640;23.372;2023-06-22T04:41:38;13.23;;;10.90;;
69369;SDS011;56530;42.640;23.372;2023-06-22T04:44:17;11.82;;;10.70;;
69369;SDS011;56530;42.640;23.372;2023-06-22T04:46:58;13.25;;;11.63;;
69369;SDS011;56530;42.640;23.372;2023-06-22T04:49:29;14.68;;;10.48;;
69369;SDS011;56530;42.640;23.372;2023-06-22T04:52:08;15.95;;;11.65;;
69369;SDS011;56530;42.640;23.372;2023-06-22T04:54:35;16.05;;;10.63;;
69369;SDS011;56530;42.640;23.372;2023-06-22T04:57:01;18.42;;;11.52;;
69369;SDS011;56530;42.640;23.372;2023-06-22T04:59:28;11.77;;;9.95;;
69369;SDS011;56530;42.640;23.372;2023-06-22T05:01:58;14.50;;;10.23;;
69369;SDS011;56530;42.640;23.372;2023-06-22T05:04:26;12.47;;;9.80;;
69369;SDS011;56530;42.640;23.372;2023-06-22T05:06:53;12.25;;;10.35;;
69369;SDS011;56530;42.640;23.372;2023-06-22T05:09:19;14.40;;;10.87;;
69369;SDS011;56530;42.640;23.372;2023-06-22T05:11:45;14.18;;;10.98;;
69369;SDS011;56530;42.640;23.372;2023-06-22T05:14:11;17.08;;;11.60;;
69369;SDS011;56530;42.640;23.372;2023-06-22T05:16:36;16.77;;;11.70;;
69369;SDS011;56530;42.640;23.372;2023-06-22T05:19:02;16.90;;;10.48;;
69369;SDS011;56530;42.640;23.372;2023-06-22T05:21:30;18.85;;;12.43;;
69369;SDS011;56530;42.640;23.372;2023-06-22T05:23:57;13.93;;;10.63;;
69369;SDS011;56530;42.640;23.372;2023-06-22T05:26:25;16.35;;;11.32;;
69369;SDS011;56530;42.640;23.372;2023-06-22T05:28:54;12.30;;;10.35;;
69369;SDS011;56530;42.640;23.372;2023-06-22T05:31:20;17.08;;;11.13;;
69369;SDS011;56530;42.640;23.372;2023-06-22T05:33:46;14.00;;;10.55;;
69369;SDS011;56530;42.640;23.372;2023-06-22T05:36:12;13.45;;;10.13;;
69369;SDS011;56530;42.640;23.372;2023-06-22T05:38:37;15.80;;;9.97;;
69369;SDS011;56530;42.640;23.372;2023-06-22T05:41:03;13.93;;;10.53;;
69369;SDS011;56530;42.640;23.372;2023-06-22T05:43:29;14.17;;;10.67;;
69369;SDS011;56530;42.640;23.372;2023-06-22T05:45:54;13.60;;;10.13;;
69369;SDS011;56530;42.640;23.372;2023-06-22T05:48:20;11.27;;;9.20;;
69369;SDS011;56530;42.640;23.372;2023-06-22T05:50:45;16.48;;;10.30;;
69369;SDS011;56530;42.640;23.372;2023-06-22T05:53:11;15.20;;;11.70;;
69369;SDS011;56530;42.640;23.372;2023-06-22T05:55:36;13.50;;;11.53;;
69369;SDS011;56530;42.640;23.372;2023-06-22T05:58:02;21.23;;;12.73;;
69369;SDS011;56530;42.640;23.372;2023-06-22T06:00:28;14.45;;;11.57;;
69369;SDS011;56530;42.640;23.372;2023-06-22T06:02:54;13.82;;;10.93;;
69369;SDS011;56530;42.640;23.372;2023-06-22T06:05:19;12.37;;;11.13;;
69369;SDS011;56530;42.640;23.372;2023-06-22T06:07:45;15.47;;;10.87;;
69369;SDS011;56530;42.640;23.372;2023-06-22T06:10:11;13.20;;;11.13;;
69369;SDS011;56530;42.640;23.372;2023-06-22T06:12:36;15.43;;;10.83;;
69369;SDS011;56530;42.640;23.372;2023-06-22T06:15:02;12.87;;;9.57;;
69369;SDS011;56530;42.640;23.372;2023-06-22T06:17:28;11.50;;;9.45;;
69369;SDS011;56530;42.640;23.372;2023-06-22T06:19:54;10.55;;;9.48;;
69369;SDS011;56530;42.640;23.372;2023-06-22T06:22:19;12.90;;;10.67;;
69369;SDS011;56530;42.640;23.372;2023-06-22T06:24:46;12.20;;;9.60;;
69369;SDS011;56530;42.640;23.372;2023-06-22T06:27:13;10.27;;;8.83;;
69369;SDS011;56530;42.640;23.372;2023-06-22T06:29:38;14.33;;;10.30;;
69369;SDS011;56530;42.640;23.372;2023-06-22T06:32:04;12.13;;;9.80;;
69369;SDS011;56530;42.640;23.372;2023-06-22T06:34:29;12.55;;;9.90;;
69369;SDS011;56530;42.640;23.372;2023-06-22T06:36:55;15.80;;;10.30;;
69369;SDS011;56530;42.640;23.372;2023-06-22T06:39:20;15.00;;;10.60;;
69369;SDS011;56530;42.640;23.372;2023-06-22T06:41:46;16.43;;;9.90;;
69369;SDS011;56530;42.640;23.372;2023-06-22T06:44:11;17.63;;;10.98;;
69369;SDS011;56530;42.640;23.372;2023-06-22T06:46:37;12.07;;;10.80;;
69369;SDS011;56530;42.640;23.372;2023-06-22T06:49:02;11.83;;;10.20;;
69369;SDS011;56530;42.640;23.372;2023-06-22T06:51:28;12.80;;;10.27;;
69369;SDS011;56530;42.640;23.372;2023-06-22T06:53:53;14.73;;;11.03;;
69369;SDS011;56530;42.640;23.372;2023-06-22T06:56:19;11.87;;;10.30;;
69369;SDS011;56530;42.640;23.372;2023-06-22T06:58:44;11.83;;;10.10;;
69369;SDS011;56530;42.640;23.372;2023-06-22T07:01:11;16.20;;;8.77;;
69369;SDS011;56530;42.640;23.372;2023-06-22T07:03:37;12.85;;;11.05;;
69369;SDS011;56530;42.640;23.372;2023-06-22T07:06:03;12.97;;;10.23;;
69369;SDS011;56530;42.640;23.372;2023-06-22T07:08:29;16.53;;;10.43;;
69369;SDS011;56530;42.640;23.372;2023-06-22T07:10:54;12.33;;;10.60;;
69369;SDS011;56530;42.640;23.372;2023-06-22T07:13:19;16.57;;;11.33;;
69369;SDS011;56530;42.640;23.372;2023-06-22T07:15:45;12.53;;;10.30;;
69369;SDS011;56530;42.640;23.372;2023-06-22T07:18:10;14.20;;;10.80;;
69369;SDS011;56530;42.640;23.372;2023-06-22T07:20:35;11.13;;;9.37;;
69369;SDS011;56530;42.640;23.372;2023-06-22T07:23:01;14.27;;;10.07;;
69369;SDS011;56530;42.640;23.372;2023-06-22T07:25:26;12.90;;;10.90;;
69369;SDS011;56530;42.640;23.372;2023-06-22T07:27:59;11.82;;;10.45;;
69369;SDS011;56530;42.640;23.372;2023-06-22T07:30:27;12.23;;;10.23;;
69369;SDS011;56530;42.640;23.372;2023-06-22T07:32:52;11.55;;;10.10;;
69369;SDS011;56530;42.640;23.372;2023-06-22T07:35:18;12.27;;;9.93;;
69369;SDS011;56530;42.640;23.372;2023-06-22T07:37:43;14.33;;;10.20;;
69369;SDS011;56530;42.640;23.372;2023-06-22T07:40:09;13.70;;;10.23;;
69369;SDS011;56530;42.640;23.372;2023-06-22T07:42:35;13.00;;;10.13;;
69369;SDS011;56530;42.640;23.372;2023-06-22T07:45:01;13.27;;;10.47;;
69369;SDS011;56530;42.640;23.372;2023-06-22T07:47:30;15.32;;;11.20;;
69369;SDS011;56530;42.640;23.372;2023-06-22T07:50:00;17.40;;;10.95;;
69369;SDS011;56530;42.640;23.372;2023-06-22T07:52:26;13.33;;;9.60;;
69369;SDS011;56530;42.640;23.372;2023-06-22T07:54:55;13.90;;;11.07;;
69369;SDS011;56530;42.640;23.372;2023-06-22T07:57:20;12.47;;;9.97;;
69369;SDS011;56530;42.640;23.372;2023-06-22T07:59:46;12.13;;;9.90;;
69369;SDS011;56530;42.640;23.372;2023-06-22T08:02:11;15.65;;;10.10;;
69369;SDS011;56530;42.640;23.372;2023-06-22T08:04:37;14.25;;;11.05;;
69369;SDS011;56530;42.640;23.372;2023-06-22T08:07:02;12.55;;;10.60;;
69369;SDS011;56530;42.640;23.372;2023-06-22T08:09:29;14.68;;;11.60;;
69369;SDS011;56530;42.640;23.372;2023-06-22T08:11:56;14.80;;;11.90;;
69369;SDS011;56530;42.640;23.372;2023-06-22T08:14:22;14.57;;;11.13;;
69369;SDS011;56530;42.640;23.372;2023-06-22T08:16:50;12.48;;;10.75;;
69369;SDS011;56530;42.640;23.372;2023-06-22T08:19:16;13.97;;;11.40;;
69369;SDS011;56530;42.640;23.372;2023-06-22T08:21:42;12.37;;;10.93;;
69369;SDS011;56530;42.640;23.372;2023-06-22T08:24:07;13.57;;;11.13;;
69369;SDS011;56530;42.640;23.372;2023-06-22T08:26:33;17.60;;;11.60;;
69369;SDS011;56530;42.640;23.372;2023-06-22T08:29:02;13.00;;;11.30;;
69369;SDS011;56530;42.640;23.372;2023-06-22T08:31:27;14.80;;;10.75;;
69369;SDS011;56530;42.640;23.372;2023-06-22T08:33:53;18.37;;;12.80;;
69369;SDS011;56530;42.640;23.372;2023-06-22T08:36:18;16.30;;;11.63;;
69369;SDS011;56530;42.640;23.372;2023-06-22T08:38:44;14.83;;;11.23;;
69369;SDS011;56530;42.640;23.372;2023-06-22T08:41:10;12.05;;;9.77;;
69369;SDS011;56530;42.640;23.372;2023-06-22T08:43:35;12.30;;;11.10;;
69369;SDS011;56530;42.640;23.372;2023-06-22T08:46:01;15.73;;;11.40;;
69369;SDS011;56530;42.640;23.372;2023-06-22T08:48:27;17.27;;;12.32;;
69369;SDS011;56530;42.640;23.372;2023-06-22T08:50:53;19.07;;;12.50;;
69369;SDS011;56530;42.640;23.372;2023-06-22T08:53:18;13.00;;;11.23;;
69369;SDS011;56530;42.640;23.372;2023-06-22T08:55:44;12.90;;;11.03;;
69369;SDS011;56530;42.640;23.372;2023-06-22T08:58:10;16.52;;;11.73;;
69369;SDS011;56530;42.640;23.372;2023-06-22T09:00:35;13.87;;;10.60;;
69369;SDS011;56530;42.640;23.372;2023-06-22T09:03:01;16.55;;;12.30;;
69369;SDS011;56530;42.640;23.372;2023-06-22T09:05:26;15.20;;;11.70;;
69369;SDS011;56530;42.640;23.372;2023-06-22T09:07:51;15.60;;;11.33;;
69369;SDS011;56530;42.640;23.372;2023-06-22T09:10:17;14.45;;;10.63;;
69369;SDS011;56530;42.640;23.372;2023-06-22T09:12:43;13.18;;;11.73;;
69369;SDS011;56530;42.640;23.372;2023-06-22T09:15:09;13.63;;;11.20;;
69369;SDS011;56530;42.640;23.372;2023-06-22T09:17:35;12.23;;;11.00;;
69369;SDS011;56530;42.640;23.372;2023-06-22T09:20:01;14.87;;;10.83;;
69369;SDS011;56530;42.640;23.372;2023-06-22T09:22:27;12.30;;;11.03;;
69369;SDS011;56530;42.640;23.372;2023-06-22T09:24:54;12.18;;;10.75;;
69369;SDS011;56530;42.640;23.372;2023-06-22T09:27:21;16.10;;;10.83;;
69369;SDS011;56530;42.640;23.372;2023-06-22T09:29:47;12.60;;;11.30;;
69369;SDS011;56530;42.640;23.372;2023-06-22T09:32:12;14.83;;;11.37;;
69369;SDS011;56530;42.640;23.372;2023-06-22T09:34:38;14.02;;;10.73;;
69369;SDS011;56530;42.640;23.372;2023-06-22T09:37:03;11.80;;;10.50;;
69369;SDS011;56530;42.640;23.372;2023-06-22T09:39:29;10.77;;;9.20;;
69369;SDS011;56530;42.640;23.372;2023-06-22T09:41:54;11.27;;;9.27;;
69369;SDS011;56530;42.640;23.372;2023-06-22T09:44:20;9.63;;;8.57;;
69369;SDS011;56530;42.640;23.372;2023-06-22T09:46:45;9.57;;;8.73;;
69369;SDS011;56530;42.640;23.372;2023-06-22T09:49:10;12.40;;;9.57;;
69369;SDS011;56530;42.640;23.372;2023-06-22T09:51:36;10.70;;;8.95;;
69369;SDS011;56530;42.640;23.372;2023-06-22T09:54:01;9.83;;;8.50;;
69369;SDS011;56530;42.640;23.372;2023-06-22T09:56:27;10.00;;;9.03;;
69369;SDS011;56530;42.640;23.372;2023-06-22T09:58:53;9.82;;;8.93;;
69369;SDS011;56530;42.640;23.372;2023-06-22T10:01:19;11.45;;;8.95;;
69369;SDS011;56530;42.640;23.372;2023-06-22T10:03:45;9.77;;;8.98;;
69369;SDS011;56530;42.640;23.372;2023-06-22T10:06:11;10.47;;;9.37;;
69369;SDS011;56530;42.640;23.372;2023-06-22T10:08:36;13.70;;;9.50;;
69369;SDS011;56530;42.640;23.372;2023-06-22T10:11:02;9.90;;;9.10;;
69369;SDS011;56530;42.640;23.372;2023-06-22T10:13:28;11.20;;;9.82;;
69369;SDS011;56530;42.640;23.372;2023-06-22T10:15:54;10.87;;;9.83;;
69369;SDS011;56530;42.640;23.372;2023-06-22T10:18:19;10.50;;;9.50;;
69369;SDS011;56530;42.640;23.372;2023-06-22T10:20:46;10.90;;;9.93;;
69369;SDS011;56530;42.640;23.372;2023-06-22T10:23:13;12.18;;;10.35;;
69369;SDS011;56530;42.640;23.372;2023-06-22T10:25:38;13.27;;;9.47;;
69369;SDS011;56530;42.640;23.372;2023-06-22T10:28:04;12.90;;;9.47;;
69369;SDS011;56530;42.640;23.372;2023-06-22T10:30:29;10.73;;;9.73;;
69369;SDS011;56530;42.640;23.372;2023-06-22T10:32:55;9.57;;;8.77;;
69369;SDS011;56530;42.640;23.372;2023-06-22T10:35:20;9.30;;;8.43;;
69369;SDS011;56530;42.640;23.372;2023-06-22T10:37:46;9.00;;;7.93;;
69369;SDS011;56530;42.640;23.372;2023-06-22T10:40:16;9.20;;;8.30;;
69369;SDS011;56530;42.640;23.372;2023-06-22T10:42:43;9.43;;;8.63;;
69369;SDS011;56530;42.640;23.372;2023-06-22T10:45:09;9.90;;;8.90;;
69369;SDS011;56530;42.640;23.372;2023-06-22T10:47:35;9.10;;;8.25;;
69369;SDS011;56530;42.640;23.372;2023-06-22T10:50:01;10.77;;;9.48;;
69369;SDS011;56530;42.640;23.372;2023-06-22T10:52:27;10.68;;;9.57;;
69369;SDS011;56530;42.640;23.372;2023-06-22T10:54:53;11.10;;;9.50;;
69369;SDS011;56530;42.640;23.372;2023-06-22T10:57:18;11.77;;;9.47;;
69369;SDS011;56530;42.640;23.372;2023-06-22T10:59:44;12.18;;;9.88;;
69369;SDS011;56530;42.640;23.372;2023-06-22T11:02:09;10.73;;;9.63;;
69369;SDS011;56530;42.640;23.372;2023-06-22T11:04:34;11.07;;;9.80;;
69369;SDS011;56530;42.640;23.372;2023-06-22T11:07:00;10.60;;;9.55;;
69369;SDS011;56530;42.640;23.372;2023-06-22T11:09:26;10.35;;;9.25;;
69369;SDS011;56530;42.640;23.372;2023-06-22T11:11:52;9.98;;;9.13;;
69369;SDS011;56530;42.640;23.372;2023-06-22T11:14:20;10.30;;;9.20;;
69369;SDS011;56530;42.640;23.372;2023-06-22T11:16:46;9.73;;;8.65;;
69369;SDS011;56530;42.640;23.372;2023-06-22T11:19:11;8.35;;;7.63;;
69369;SDS011;56530;42.640;23.372;2023-06-22T11:21:37;9.70;;;8.90;;
69369;SDS011;56530;42.640;23.372;2023-06-22T11:24:03;10.13;;;9.23;;
69369;SDS011;56530;42.640;23.372;2023-06-22T11:26:28;9.63;;;8.73;;
69369;SDS011;56530;42.640;23.372;2023-06-22T11:28:54;8.30;;;7.60;;
69369;SDS011;56530;42.640;23.372;2023-06-22T11:31:19;10.45;;;9.38;;
69369;SDS011;56530;42.640;23.372;2023-06-22T11:33:45;8.70;;;8.00;;
69369;SDS011;56530;42.640;23.372;2023-06-22T11:36:13;8.82;;;7.93;;
69369;SDS011;56530;42.640;23.372;2023-06-22T11:38:40;8.80;;;8.05;;
69369;SDS011;56530;42.640;23.372;2023-06-22T11:41:05;9.65;;;8.60;;
69369;SDS011;56530;42.640;23.372;2023-06-22T11:43:31;9.93;;;8.40;;
69369;SDS011;56530;42.640;23.372;2023-06-22T11:45:57;9.00;;;8.17;;
69369;SDS011;56530;42.640;23.372;2023-06-22T11:48:23;8.23;;;7.53;;
69369;SDS011;56530;42.640;23.372;2023-06-22T11:50:49;9.18;;;7.88;;
69369;SDS011;56530;42.640;23.372;2023-06-22T11:53:15;8.27;;;7.55;;
69369;SDS011;56530;42.640;23.372;2023-06-22T11:55:46;8.25;;;7.55;;
69369;SDS011;56530;42.640;23.372;2023-06-22T11:58:11;9.43;;;8.17;;
69369;SDS011;56530;42.640;23.372;2023-06-22T12:00:37;9.20;;;8.40;;
69369;SDS011;56530;42.640;23.372;2023-06-22T12:03:03;8.17;;;7.40;;
69369;SDS011;56530;42.640;23.372;2023-06-22T12:05:28;8.45;;;7.65;;
69369;SDS011;56530;42.640;23.372;2023-06-22T12:07:54;9.43;;;7.50;;
69369;SDS011;56530;42.640;23.372;2023-06-22T12:10:20;8.68;;;7.85;;
69369;SDS011;56530;42.640;23.372;2023-06-22T12:12:46;8.30;;;7.50;;
69369;SDS011;56530;42.640;23.372;2023-06-22T12:15:11;9.17;;;8.27;;
69369;SDS011;56530;42.640;23.372;2023-06-22T12:17:37;8.17;;;7.37;;
69369;SDS011;56530;42.640;23.372;2023-06-22T12:20:03;8.77;;;7.97;;
69369;SDS011;56530;42.640;23.372;2023-06-22T12:22:34;9.93;;;8.93;;
69369;SDS011;56530;42.640;23.372;2023-06-22T12:25:00;11.75;;;8.30;;
69369;SDS011;56530;42.640;23.372;2023-06-22T12:27:25;13.98;;;8.55;;
69369;SDS011;56530;42.640;23.372;2023-06-22T12:29:51;17.17;;;8.87;;
69369;SDS011;56530;42.640;23.372;2023-06-22T12:32:16;11.95;;;9.70;;
69369;SDS011;56530;42.640;23.372;2023-06-22T12:34:42;13.93;;;9.80;;
69369;SDS011;56530;42.640;23.372;2023-06-22T12:37:08;12.27;;;10.32;;
69369;SDS011;56530;42.640;23.372;2023-06-22T12:39:34;12.77;;;9.40;;
69369;SDS011;56530;42.640;23.372;2023-06-22T12:41:59;11.40;;;9.07;;
69369;SDS011;56530;42.640;23.372;2023-06-22T12:44:25;14.73;;;9.83;;
69369;SDS011;56530;42.640;23.372;2023-06-22T12:46:50;11.73;;;9.07;;
69369;SDS011;56530;42.640;23.372;2023-06-22T12:49:16;17.93;;;11.23;;
69369;SDS011;56530;42.640;23.372;2023-06-22T12:51:42;12.90;;;9.40;;
69369;SDS011;56530;42.640;23.372;2023-06-22T12:54:08;12.45;;;9.90;;
69369;SDS011;56530;42.640;23.372;2023-06-22T12:56:33;10.93;;;9.27;;
69369;SDS011;56530;42.640;23.372;2023-06-22T12:58:59;12.23;;;9.98;;
69369;SDS011;56530;42.640;23.372;2023-06-22T13:01:27;15.77;;;10.60;;
69369;SDS011;56530;42.640;23.372;2023-06-22T13:03:52;12.73;;;10.20;;
69369;SDS011;56530;42.640;23.372;2023-06-22T13:06:18;10.87;;;9.73;;
69369;SDS011;56530;42.640;23.372;2023-06-22T13:08:44;12.07;;;10.40;;
69369;SDS011;56530;42.640;23.372;2023-06-22T13:11:09;13.83;;;12.37;;
69369;SDS011;56530;42.640;23.372;2023-06-22T13:13:34;13.93;;;11.75;;
69369;SDS011;56530;42.640;23.372;2023-06-22T13:16:00;11.67;;;10.57;;
69369;SDS011;56530;42.640;23.372;2023-06-22T13:18:25;14.43;;;10.87;;
69369;SDS011;56530;42.640;23.372;2023-06-22T13:20:51;16.10;;;10.90;;
69369;SDS011;56530;42.640;23.372;2023-06-22T13:23:18;15.73;;;10.38;;
69369;SDS011;56530;42.640;23.372;2023-06-22T13:25:43;11.80;;;10.03;;
69369;SDS011;56530;42.640;23.372;2023-06-22T13:28:08;10.57;;;9.53;;
69369;SDS011;56530;42.640;23.372;2023-06-22T13:30:35;10.88;;;9.60;;
69369;SDS011;56530;42.640;23.372;2023-06-22T13:33:00;11.27;;;10.13;;
69369;SDS011;56530;42.640;23.372;2023-06-22T13:35:26;10.60;;;9.60;;
69369;SDS011;56530;42.640;23.372;2023-06-22T13:37:51;14.77;;;10.07;;
69369;SDS011;56530;42.640;23.372;2023-06-22T13:40:17;10.23;;;9.10;;
69369;SDS011;56530;42.640;23.372;2023-06-22T13:42:42;12.27;;;9.25;;
69369;SDS011;56530;42.640;23.372;2023-06-22T13:45:08;10.47;;;9.47;;
69369;SDS011;56530;42.640;23.372;2023-06-22T13:47:33;10.38;;;9.30;;
69369;SDS011;56530;42.640;23.372;2023-06-22T13:49:59;11.10;;;9.02;;
69369;SDS011;56530;42.640;23.372;2023-06-22T13:52:24;9.82;;;8.82;;
69369;SDS011;56530;42.640;23.372;2023-06-22T13:54:50;10.35;;;9.35;;
69369;SDS011;56530;42.640;23.372;2023-06-22T13:57:15;17.77;;;10.67;;
69369;SDS011;56530;42.640;23.372;2023-06-22T13:59:41;14.25;;;10.23;;
69369;SDS011;56530;42.640;23.372;2023-06-22T14:02:06;11.18;;;10.10;;
69369;SDS011;56530;42.640;23.372;2023-06-22T14:04:32;11.40;;;9.82;;
69369;SDS011;56530;42.640;23.372;2023-06-22T14:06:57;12.47;;;9.67;;
69369;SDS011;56530;42.640;23.372;2023-06-22T14:09:23;12.90;;;9.60;;
69369;SDS011;56530;42.640;23.372;2023-06-22T14:11:49;10.88;;;9.88;;
69369;SDS011;56530;42.640;23.372;2023-06-22T14:14:14;21.65;;;17.77;;
69369;SDS011;56530;42.640;23.372;2023-06-22T14:16:39;13.13;;;11.73;;
69369;SDS011;56530;42.640;23.372;2023-06-22T14:19:05;12.83;;;10.50;;
69369;SDS011;56530;42.640;23.372;2023-06-22T14:21:30;13.77;;;11.47;;